Impacts METAR Board INFO
IDs:

KMCO - Orlando Intl, FL, US

Updated at: 0454 UTC 18 Feb 2018
Potential Impact None Slight Moderate High
Time17/16Z 17/17Z 17/18Z 17/19Z 17/20Z 17/21Z 17/22Z 17/23Z 18/00Z 18/01Z 18/02Z 18/03Z 18/04Z
VIS10 10 10 10 10 10 10 10 10 10 10 10 10
CIG-- 150 -- -- -- -- -- -- -- -- -- -- --
CoverFEWBKNFEWFEWFEWFEWFEWFEWFEWCLRFEWCLRCLR
FltCatVFRVFRVFRVFRVFRVFRVFRVFRVFRVFRVFRVFRVFR
WX--------------------------
WDir0220190170170240260240290290290300310
WSpd3 6 11 13 9 9 9 5 6 8 7 7 5
WGst-- -- -- -- -- 14 -- -- -- -- -- -- --
Raw hourly METARs
KMCO 171553Z VRB03KT 10SM FEW020 23/18 A3023 RMK AO2 SLP235 T02280183
KMCO 171653Z 22006KT 10SM FEW045 BKN150 25/16 A3021 RMK AO2 SLP228 T02500156
KMCO 171753Z 19011KT 10SM FEW055 27/14 A3018 RMK AO2 SLP217 T02670139 10272 20139 58017
KMCO 171853Z 17013KT 10SM FEW055 28/14 A3015 RMK AO2 SLP208 T02780144
KMCO 171953Z 17009KT 10SM FEW055 28/13 A3013 RMK AO2 SLP202 T02830133
KMCO 172053Z 24009G14KT 10SM FEW055 29/13 A3014 RMK AO2 SLP205 T02890128 55012
KMCO 172153Z 26009KT 10SM FEW060 28/13 A3016 RMK AO2 SLP211 T02780128
KMCO 172253Z 24005KT 10SM FEW060 27/13 A3017 RMK AO2 SLP216 T02670128
KMCO 172353Z 29006KT 10SM FEW060 25/12 A3019 RMK AO2 SLP220 T02500117 10289 20250 51015
KMCO 180053Z 29008KT 10SM CLR 24/12 A3020 RMK AO2 SLP225 T02440122
KMCO 180153Z 29007KT 10SM FEW250 23/14 A3021 RMK AO2 SLP230 T02280139
KMCO 180253Z 30007KT 10SM CLR 22/14 A3023 RMK AO2 SLP235 T02170139 53015
KMCO 180353Z 31005KT 10SM CLR 20/14 A3022 RMK AO2 SLP232 T02000144